createdAt,value
2018-03-23T00:01:57.168Z,0.60
2018-03-23T00:04:24.522Z,0.68
2018-03-23T00:06:51.876Z,0.62
2018-03-23T00:09:19.251Z,0.60
2018-03-23T00:11:46.619Z,75.78
2018-03-23T00:14:13.955Z,388.30
2018-03-23T00:16:41.546Z,391.58
2018-03-23T00:19:08.932Z,1030.55
2018-03-23T00:21:37.016Z,1031.18
2018-03-23T00:24:04.366Z,1015.28
2018-03-23T00:26:31.704Z,1029.35
2018-03-23T00:28:59.780Z,1022.90
2018-03-23T00:31:27.825Z,1034.63
2018-03-23T00:33:55.184Z,1023.20
2018-03-23T00:36:22.509Z,1037.22
2018-03-23T00:38:49.867Z,1051.22
2018-03-23T00:41:17.210Z,1015.05
2018-03-23T00:43:44.599Z,1023.85
2018-03-23T00:46:11.914Z,928.95
2018-03-23T00:48:39.844Z,995.80
2018-03-23T00:51:07.821Z,993.30
2018-03-23T00:53:35.188Z,1001.17
2018-03-23T00:56:02.569Z,1024.72
2018-03-23T00:58:29.891Z,1026.55
2018-03-23T01:00:57.252Z,1033.15
2018-03-23T01:03:24.627Z,1025.28
2018-03-23T01:05:52.006Z,640.65
2018-03-23T01:08:19.337Z,188.65
2018-03-23T01:10:46.730Z,770.03
2018-03-23T01:13:14.115Z,683.38
2018-03-23T01:15:41.470Z,187.98
2018-03-23T01:18:08.854Z,610.45
2018-03-23T01:20:36.323Z,240.60
2018-03-23T01:23:03.648Z,767.15
2018-03-23T01:25:31.233Z,439.10
2018-03-23T01:27:58.543Z,201.12
2018-03-23T01:30:25.851Z,410.58
2018-03-23T01:32:53.251Z,162.32
2018-03-23T01:35:20.558Z,242.27
2018-03-23T01:37:48.822Z,179.93
2018-03-23T01:40:16.179Z,177.55
2018-03-23T01:42:43.554Z,188.35
2018-03-23T01:45:10.881Z,243.52
2018-03-23T01:47:38.248Z,241.18
2018-03-23T01:50:05.677Z,189.23
2018-03-23T01:52:33.926Z,422.73
2018-03-23T01:55:02.144Z,941.20
2018-03-23T01:57:29.537Z,686.60
2018-03-23T01:59:56.919Z,609.37
2018-03-23T02:02:24.213Z,993.33
2018-03-23T02:04:51.598Z,1009.20
2018-03-23T02:07:18.932Z,979.75
2018-03-23T02:09:46.275Z,927.10
2018-03-23T02:12:14.584Z,845.42
2018-03-23T02:14:41.888Z,846.12
2018-03-23T02:17:09.315Z,756.47
2018-03-23T02:19:36.759Z,871.87
2018-03-23T02:22:04.203Z,879.22
2018-03-23T02:24:31.580Z,884.40
2018-03-23T02:26:59.452Z,844.55
2018-03-23T02:29:26.785Z,936.45
2018-03-23T02:31:54.133Z,924.70
2018-03-23T02:34:22.374Z,898.03
2018-03-23T02:36:49.698Z,882.65
2018-03-23T02:39:17.088Z,921.42
2018-03-23T02:41:44.471Z,924.62
2018-03-23T02:44:11.858Z,881.67
2018-03-23T02:46:40.087Z,902.30
2018-03-23T02:49:07.434Z,859.22
2018-03-23T02:51:34.787Z,931.40
2018-03-23T02:54:02.109Z,905.50
2018-03-23T02:56:29.543Z,844.67
2018-03-23T02:58:56.929Z,809.03
2018-03-23T03:01:24.274Z,787.53
2018-03-23T03:03:52.000Z,805.47
2018-03-23T03:06:20.979Z,754.60
2018-03-23T03:08:48.312Z,791.42
2018-03-23T03:11:15.735Z,956.40
2018-03-23T03:13:43.052Z,996.92
2018-03-23T03:16:11.134Z,1002.38
2018-03-23T03:18:40.284Z,902.90
2018-03-23T03:21:07.802Z,939.03
2018-03-23T03:23:35.219Z,987.00
2018-03-23T03:26:02.603Z,918.05
2018-03-23T03:28:30.747Z,920.53
2018-03-23T03:30:58.084Z,973.97
2018-03-23T03:33:25.402Z,954.53
2018-03-23T03:35:52.750Z,938.83
2018-03-23T03:38:20.181Z,935.40
2018-03-23T03:40:47.807Z,730.10
2018-03-23T03:43:15.142Z,818.55
2018-03-23T03:45:43.462Z,700.03
2018-03-23T03:48:10.787Z,890.78
2018-03-23T03:50:38.171Z,916.05
2018-03-23T03:53:05.529Z,890.50
2018-03-23T03:55:32.940Z,867.15
2018-03-23T03:58:00.303Z,897.58
2018-03-23T04:00:27.811Z,877.15
2018-03-23T04:02:55.142Z,917.42
2018-03-23T04:05:23.471Z,903.58
2018-03-23T04:07:50.774Z,867.25
2018-03-23T04:10:18.100Z,860.85
2018-03-23T04:12:45.443Z,766.10
2018-03-23T04:15:12.828Z,854.65
2018-03-23T04:17:40.140Z,837.53
2018-03-23T04:20:07.614Z,858.78
2018-03-23T04:22:34.974Z,813.17
2018-03-23T04:25:02.331Z,795.35
2018-03-23T04:27:29.691Z,827.17
2018-03-23T04:29:57.030Z,796.83
2018-03-23T04:32:24.357Z,815.97
2018-03-23T04:34:51.731Z,789.33
2018-03-23T04:37:19.073Z,857.05
2018-03-23T04:39:46.508Z,803.67
2018-03-23T04:42:13.803Z,777.83
2018-03-23T04:44:41.233Z,783.30
2018-03-23T04:47:08.666Z,806.75
2018-03-23T04:49:36.828Z,788.03
2018-03-23T04:52:04.190Z,739.20
2018-03-23T04:54:31.502Z,763.00
2018-03-23T04:56:58.866Z,702.40
2018-03-23T04:59:26.211Z,787.17
2018-03-23T05:01:53.550Z,712.75
2018-03-23T05:04:21.011Z,749.90
2018-03-23T05:06:48.348Z,726.03
2018-03-23T05:09:15.663Z,770.00
2018-03-23T05:11:42.986Z,698.50
2018-03-23T05:14:10.306Z,713.42
2018-03-23T05:16:37.676Z,736.65
2018-03-23T05:19:05.053Z,699.97
2018-03-23T05:21:32.405Z,674.40
2018-03-23T05:23:59.807Z,674.05
2018-03-23T05:26:27.883Z,694.90
2018-03-23T05:28:56.797Z,698.30
2018-03-23T05:31:24.146Z,697.17
2018-03-23T05:33:52.016Z,668.00
2018-03-23T05:36:19.365Z,694.28
2018-03-23T05:38:46.756Z,691.95
2018-03-23T05:41:14.944Z,679.67
2018-03-23T05:43:42.271Z,664.40
2018-03-23T05:46:09.650Z,699.80
2018-03-23T05:48:36.958Z,736.60
2018-03-23T05:51:04.378Z,672.65
2018-03-23T05:53:31.736Z,694.83
2018-03-23T05:55:59.083Z,675.20
2018-03-23T05:58:27.172Z,662.80
2018-03-23T06:00:54.557Z,691.65
2018-03-23T06:03:21.901Z,703.92
2018-03-23T06:05:50.094Z,673.25
2018-03-23T06:08:17.423Z,682.22
2018-03-23T06:10:44.876Z,661.85
2018-03-23T06:13:13.202Z,663.78
2018-03-23T06:15:40.519Z,622.63
2018-03-23T06:18:07.938Z,624.92
2018-03-23T06:20:35.274Z,593.22
2018-03-23T06:23:02.615Z,587.50
2018-03-23T06:25:30.001Z,597.22
2018-03-23T06:27:57.343Z,576.87
2018-03-23T06:30:24.939Z,603.50
2018-03-23T06:32:52.287Z,548.40
2018-03-23T06:35:20.377Z,529.03
2018-03-23T06:37:47.748Z,542.37
2018-03-23T06:40:15.119Z,546.85
2018-03-23T06:42:42.475Z,553.22
2018-03-23T06:45:09.838Z,558.92
2018-03-23T06:47:37.183Z,536.58
2018-03-23T06:50:04.746Z,560.42
2018-03-23T06:52:32.178Z,548.20
2018-03-23T06:54:59.555Z,508.52
2018-03-23T06:57:27.498Z,556.45
2018-03-23T06:59:54.835Z,532.65
2018-03-23T07:02:22.207Z,471.12
2018-03-23T07:04:49.570Z,473.67
2018-03-23T07:07:16.971Z,478.25
2018-03-23T07:09:44.280Z,484.40
2018-03-23T07:12:11.617Z,417.77
2018-03-23T07:14:38.930Z,477.60
2018-03-23T07:17:07.109Z,444.30
2018-03-23T07:19:34.468Z,497.25
2018-03-23T07:22:02.843Z,479.12
2018-03-23T07:24:30.168Z,407.23
2018-03-23T07:26:57.492Z,383.10
2018-03-23T07:29:24.839Z,365.55
2018-03-23T07:31:52.171Z,376.75
2018-03-23T07:34:19.510Z,349.50
2018-03-23T07:36:48.210Z,293.65
2018-03-23T07:39:15.570Z,332.52
2018-03-23T07:41:42.896Z,290.00
2018-03-23T07:44:10.399Z,315.25
2018-03-23T07:46:37.762Z,299.40
2018-03-23T07:49:05.152Z,284.75
2018-03-23T07:51:32.490Z,358.87
2018-03-23T07:53:59.845Z,315.52
2018-03-23T07:56:27.152Z,205.45
2018-03-23T07:58:54.455Z,152.32
2018-03-23T08:01:21.813Z,190.48
2018-03-23T08:03:49.201Z,127.45
2018-03-23T08:06:17.302Z,73.18
2018-03-23T08:08:45.416Z,50.12
2018-03-23T08:11:12.746Z,46.20
2018-03-23T08:13:40.052Z,50.70
2018-03-23T08:16:08.144Z,41.78
2018-03-23T08:18:35.518Z,18.73
2018-03-23T08:21:03.214Z,0.68
2018-03-23T08:23:30.532Z,0.65
2018-03-23T08:25:58.402Z,0.40
2018-03-23T08:28:25.795Z,0.35
2018-03-23T08:30:53.166Z,0.55
2018-03-23T08:33:20.470Z,0.60
2018-03-23T08:35:47.817Z,0.45
2018-03-23T08:38:15.276Z,0.35
2018-03-23T08:40:42.617Z,0.55
2018-03-23T08:43:10.462Z,0.52
2018-03-23T08:45:37.803Z,0.52
2018-03-23T08:48:05.817Z,0.43
2018-03-23T08:50:33.622Z,0.40
2018-03-23T08:53:00.946Z,0.40
2018-03-23T08:55:28.427Z,0.35
2018-03-23T08:57:55.958Z,0.32
2018-03-23T09:00:23.274Z,0.30
2018-03-23T09:02:51.378Z,0.32
2018-03-23T09:05:18.726Z,0.30
2018-03-23T09:07:46.038Z,0.30
2018-03-23T09:10:13.471Z,0.20
2018-03-23T09:12:40.816Z,0.30
2018-03-23T09:15:08.175Z,0.20
2018-03-23T09:17:35.556Z,0.20
2018-03-23T09:20:03.699Z,0.20
2018-03-23T09:24:59.452Z,85.12
2018-03-23T09:32:24.855Z,12.85
2018-03-23T09:37:22.223Z,20.02
2018-03-23T09:39:49.596Z,0.30
2018-03-23T09:47:15.412Z,24.70
2018-03-23T09:49:42.763Z,0.30
2018-03-23T09:52:10.165Z,0.20
2018-03-23T09:54:37.507Z,0.20
2018-03-23T09:57:04.853Z,0.20
2018-03-23T09:59:32.205Z,0.20
2018-03-23T10:01:59.538Z,0.22
2018-03-23T10:04:26.892Z,0.20
2018-03-23T10:09:23.998Z,9.45
2018-03-23T10:11:51.405Z,0.30
2018-03-23T10:14:18.750Z,0.30
2018-03-23T10:16:46.127Z,0.22
2018-03-23T10:19:13.495Z,0.20
2018-03-23T10:21:40.846Z,0.20
2018-03-23T10:24:08.222Z,0.20
2018-03-23T10:26:35.619Z,0.20
2018-03-23T10:31:33.440Z,25.30
2018-03-23T10:34:00.772Z,0.10
2018-03-23T10:38:57.755Z,40.22
2018-03-23T10:41:25.163Z,0.20
2018-03-23T10:46:23.271Z,124.85
2018-03-23T10:51:21.367Z,55.10
2018-03-23T10:56:20.667Z,64.55
2018-03-23T11:06:15.346Z,99.57
2018-03-23T11:11:13.189Z,17.27
2018-03-23T11:13:40.634Z,0.00
2018-03-23T11:16:08.037Z,0.22
2018-03-23T11:18:35.458Z,0.20
2018-03-23T11:21:02.872Z,0.20
2018-03-23T11:23:30.214Z,0.20
2018-03-23T11:25:57.538Z,0.20
2018-03-23T11:28:25.142Z,0.10
2018-03-23T11:30:52.487Z,0.30
2018-03-23T11:33:20.027Z,0.00
2018-03-23T11:38:18.216Z,17.50
2018-03-23T11:40:45.567Z,0.28
2018-03-23T11:45:43.618Z,14.50
2018-03-23T11:48:10.956Z,0.30
2018-03-23T11:50:39.136Z,0.30
2018-03-23T11:53:07.285Z,0.20
2018-03-23T11:55:34.644Z,0.20
2018-03-23T11:58:02.419Z,0.20
2018-03-23T12:00:29.769Z,0.20
2018-03-23T12:02:57.258Z,0.20
2018-03-23T12:05:24.648Z,0.22
2018-03-23T12:07:51.997Z,0.20
2018-03-23T12:10:19.684Z,0.20
2018-03-23T12:12:47.042Z,0.20
2018-03-23T12:17:42.919Z,12.82
2018-03-23T13:04:51.151Z,10.55
2018-03-23T13:07:18.480Z,0.30
2018-03-23T13:09:45.859Z,0.20
2018-03-23T13:59:26.470Z,0.70
2018-03-23T14:01:53.955Z,0.14
2018-03-23T14:04:21.335Z,0.20
2018-03-23T14:06:48.752Z,0.10
2018-03-23T14:09:18.787Z,0.00
2018-03-23T14:14:14.739Z,80.30
2018-03-23T14:16:42.169Z,0.10
2018-03-23T14:21:39.058Z,0.10
2018-03-23T14:26:36.877Z,0.50
2018-03-23T14:29:04.252Z,0.15
2018-03-23T14:56:18.546Z,30.45
2018-03-23T15:26:41.756Z,76.90
2018-03-23T15:34:08.723Z,25.17
2018-03-23T15:54:01.380Z,156.23
2018-03-23T16:06:23.747Z,23.85
2018-03-23T17:45:56.577Z,40.10
2018-03-23T18:38:12.343Z,56.90
